Terminal Aerodrome Forecast
Issued by NWS

Home | Current Version | Previous Version | Text Only | Print | Product List | Glossary On
Versions: 1 2 3 4 5 6 7 8 9 10 11 12 13 14 15 16 17 18 19 20 21 22
197
FTUS41 KGYX 300910 AAA
TAFRKD
TAF AMD
KRKD 300910Z 3009/3106 32007G15KT P6SM SKC
     FM301400 33010G17KT P6SM SKC
     FM302100 35005KT P6SM SKC
      AMD LTD TO CLD VIS AND WIND=

USA.gov is the U.S. government's official web portal to all federal, state and local government web resources and services.